createdAt,value
2019-04-16T00:01:03.164Z,77.50
2019-04-16T00:03:32.587Z,77.70
2019-04-16T00:06:02.666Z,77.90
2019-04-16T00:08:33.048Z,78.20
2019-04-16T00:11:03.128Z,78.30
2019-04-16T00:13:35.923Z,78.40
2019-04-16T00:16:04.757Z,78.60
2019-04-16T00:18:33.171Z,78.90
2019-04-16T00:21:06.458Z,78.90
2019-04-16T00:26:41.423Z,79.50
2019-04-16T00:29:10.013Z,79.50
2019-04-16T00:31:39.090Z,79.80
2019-04-16T00:34:07.844Z,79.90
2019-04-16T00:36:36.352Z,80.10
2019-04-16T00:39:06.312Z,80.90
2019-04-16T00:41:35.037Z,80.30
2019-04-16T00:44:03.764Z,80.60
2019-04-16T00:46:32.235Z,81.00
2019-04-16T00:49:00.907Z,81.00
2019-04-16T00:51:29.342Z,81.10
2019-04-16T00:53:58.075Z,81.50
2019-04-16T00:56:26.516Z,81.60
2019-04-16T00:58:55.261Z,81.80
2019-04-16T01:01:23.867Z,81.90
2019-04-16T01:03:52.633Z,81.90
2019-04-16T01:06:21.427Z,82.20
2019-04-16T01:08:54.881Z,82.50
2019-04-16T01:11:20.023Z,82.40
2019-04-16T01:13:48.719Z,82.60
2019-04-16T01:16:17.549Z,82.90
2019-04-16T01:18:46.307Z,83.00
2019-04-16T01:21:16.940Z,83.20
2019-04-16T01:23:48.561Z,83.30
2019-04-16T01:26:16.167Z,83.60
2019-04-16T01:28:49.047Z,83.90
2019-04-16T01:31:22.231Z,84.10
2019-04-16T01:34:08.635Z,84.30
2019-04-16T01:36:55.033Z,84.40
2019-04-16T01:39:31.179Z,84.70
2019-04-16T01:41:59.880Z,85.10
2019-04-16T01:44:29.442Z,86.40
2019-04-16T01:46:58.230Z,85.70
2019-04-16T01:49:26.979Z,85.90
2019-04-16T01:51:55.404Z,86.30
2019-04-16T01:54:24.152Z,86.50
2019-04-16T01:56:52.583Z,86.80
2019-04-16T01:59:21.303Z,87.10
2019-04-16T02:01:49.738Z,87.30
2019-04-16T02:04:19.924Z,87.60
2019-04-16T02:06:48.323Z,87.90
2019-04-16T02:09:22.631Z,88.20
2019-04-16T02:11:47.168Z,88.40
2019-04-16T02:14:17.977Z,89.10
2019-04-16T02:16:46.092Z,88.80
2019-04-16T02:19:34.176Z,89.20
2019-04-16T02:22:02.631Z,89.30
2019-04-16T02:24:31.063Z,89.80
2019-04-16T02:26:59.928Z,89.80
2019-04-16T02:29:30.551Z,90.20
2019-04-16T02:31:59.177Z,90.50
2019-04-16T02:34:27.999Z,90.60
2019-04-16T02:37:00.749Z,90.70
2019-04-16T02:39:46.472Z,90.80
2019-04-16T02:41:58.484Z,91.20
2019-04-16T02:44:27.239Z,91.00
2019-04-16T02:46:56.015Z,91.00
2019-04-16T02:49:25.220Z,91.10
2019-04-16T02:51:55.744Z,91.20
2019-04-16T02:57:26.625Z,91.40
2019-04-16T02:59:54.561Z,91.60
2019-04-16T03:02:24.638Z,91.60
2019-04-16T03:05:11.432Z,91.70
2019-04-16T03:07:40.212Z,91.80
2019-04-16T03:10:12.069Z,91.90
2019-04-16T03:12:39.285Z,92.00
2019-04-16T03:15:08.369Z,92.00
2019-04-16T03:17:39.486Z,92.10
2019-04-16T03:20:14.159Z,92.30
2019-04-16T03:22:42.960Z,92.20
2019-04-16T03:25:13.559Z,92.30
2019-04-16T03:27:42.184Z,92.30
2019-04-16T03:30:11.372Z,92.40
2019-04-16T03:32:41.507Z,92.50
2019-04-16T03:35:10.472Z,92.50
2019-04-16T03:37:39.024Z,92.50
2019-04-16T03:40:16.235Z,92.60
2019-04-16T03:42:37.688Z,92.60
2019-04-16T03:45:09.377Z,92.80
2019-04-16T03:47:37.591Z,92.90
2019-04-16T03:50:07.063Z,93.10
2019-04-16T03:52:37.526Z,93.20
2019-04-16T03:55:05.984Z,93.40
2019-04-16T03:57:34.763Z,93.40
2019-04-16T04:00:04.074Z,93.50
2019-04-16T04:02:32.853Z,93.70
2019-04-16T04:05:06.083Z,93.90
2019-04-16T04:07:32.994Z,94.00
2019-04-16T04:10:01.447Z,94.00
2019-04-16T04:12:30.296Z,94.00
2019-04-16T04:14:58.730Z,94.10
2019-04-16T04:17:27.439Z,94.00
2019-04-16T04:19:55.870Z,94.00
2019-04-16T04:22:25.773Z,94.10
2019-04-16T04:24:54.762Z,94.00
2019-04-16T04:27:23.540Z,93.90
2019-04-16T04:29:53.713Z,94.00
2019-04-16T04:32:22.159Z,94.30
2019-04-16T04:34:50.842Z,94.20
2019-04-16T04:37:19.347Z,94.20
2019-04-16T04:39:47.864Z,94.50
2019-04-16T04:42:19.000Z,94.20
2019-04-16T04:44:47.075Z,94.10
2019-04-16T04:47:19.307Z,94.00
2019-04-16T04:49:46.251Z,94.00
2019-04-16T04:52:15.261Z,93.80
2019-04-16T04:54:43.867Z,93.00
2019-04-16T04:57:12.298Z,91.50
2019-04-16T04:59:41.020Z,89.60
2019-04-16T05:02:10.581Z,87.40
2019-04-16T05:04:43.995Z,85.50
2019-04-16T05:09:48.356Z,83.10
2019-04-16T05:12:17.819Z,82.60
2019-04-16T05:14:57.564Z,80.40
2019-04-16T05:17:25.599Z,78.50
2019-04-16T05:19:54.279Z,78.40
2019-04-16T05:22:23.107Z,78.50
2019-04-16T05:24:51.679Z,78.80
2019-04-16T05:27:20.105Z,78.80
2019-04-16T05:29:49.561Z,79.60
2019-04-16T05:32:18.131Z,79.10
2019-04-16T05:34:46.570Z,78.60
2019-04-16T05:37:16.649Z,78.20
2019-04-16T05:39:46.125Z,78.00
2019-04-16T05:42:14.543Z,77.10
2019-04-16T05:44:42.987Z,75.60
2019-04-16T05:47:11.485Z,76.60
2019-04-16T05:49:40.412Z,76.50
2019-04-16T05:52:08.909Z,76.50
2019-04-16T05:54:51.213Z,75.60
2019-04-16T05:57:25.623Z,74.70
2019-04-16T05:59:52.042Z,75.00
2019-04-16T06:02:22.109Z,75.80
2019-04-16T06:04:55.452Z,75.60
2019-04-16T06:07:21.003Z,76.30
2019-04-16T06:09:49.431Z,74.20
2019-04-16T06:12:18.323Z,73.20
2019-04-16T06:14:54.486Z,72.60
2019-04-16T06:17:31.901Z,72.50
2019-04-16T06:19:59.269Z,69.80
2019-04-16T06:22:32.668Z,68.80
2019-04-16T06:25:19.677Z,70.30
2019-04-16T06:28:06.030Z,72.70
2019-04-16T06:30:54.483Z,71.30
2019-04-16T06:33:24.553Z,71.70
2019-04-16T06:38:36.947Z,70.90
2019-04-16T06:41:16.387Z,68.90
2019-04-16T06:43:46.479Z,68.40
2019-04-16T06:46:25.719Z,67.50
2019-04-16T06:48:56.068Z,66.80
2019-04-16T06:51:32.125Z,66.50
2019-04-16T06:54:08.004Z,65.30
2019-04-16T06:56:41.203Z,64.70
2019-04-16T06:59:11.602Z,66.90
2019-04-16T07:01:44.387Z,66.80
2019-04-16T07:04:15.737Z,66.00
2019-04-16T07:07:07.826Z,64.20
2019-04-16T07:09:41.315Z,61.20
2019-04-16T07:12:06.781Z,60.40
2019-04-16T07:14:36.208Z,61.80
2019-04-16T07:17:05.739Z,64.20
2019-04-16T07:19:34.167Z,66.20
2019-04-16T07:22:02.608Z,67.60
2019-04-16T07:24:32.399Z,68.10
2019-04-16T07:27:01.510Z,68.80
2019-04-16T07:29:54.206Z,69.00
2019-04-16T07:32:33.664Z,69.20
2019-04-16T07:35:03.734Z,69.40
2019-04-16T07:37:42.847Z,69.30
2019-04-16T07:40:29.505Z,68.10
2019-04-16T07:43:02.256Z,68.10
2019-04-16T07:45:44.473Z,66.70
2019-04-16T07:48:16.436Z,63.30
2019-04-16T07:50:46.763Z,59.00
2019-04-16T07:53:16.849Z,61.10
2019-04-16T07:55:49.865Z,63.00
2019-04-16T07:58:18.303Z,63.60
2019-04-16T08:00:46.995Z,64.30
2019-04-16T08:03:15.744Z,65.10
2019-04-16T08:05:44.185Z,65.10
2019-04-16T08:08:12.619Z,65.60
2019-04-16T08:10:41.620Z,64.20
2019-04-16T08:13:33.613Z,60.60
2019-04-16T08:16:03.056Z,57.50
2019-04-16T08:18:32.857Z,55.60
2019-04-16T08:21:08.991Z,54.60
2019-04-16T08:23:33.158Z,53.70
2019-04-16T08:26:04.902Z,52.80
2019-04-16T08:28:33.756Z,51.10
2019-04-16T08:31:03.692Z,50.30
2019-04-16T08:33:32.468Z,49.20
2019-04-16T08:36:01.269Z,47.70
2019-04-16T08:38:34.133Z,47.30
2019-04-16T08:41:00.191Z,47.80
2019-04-16T08:43:29.633Z,48.80
2019-04-16T08:45:58.926Z,48.10
2019-04-16T08:48:27.347Z,47.60
2019-04-16T08:50:58.415Z,46.60
2019-04-16T08:53:26.206Z,46.10
2019-04-16T08:55:54.975Z,46.60
2019-04-16T08:58:24.594Z,45.70
2019-04-16T09:00:53.361Z,45.10
2019-04-16T09:03:22.152Z,45.70
2019-04-16T09:05:50.967Z,45.50
2019-04-16T09:08:22.185Z,45.20
2019-04-16T09:10:51.527Z,43.80
2019-04-16T09:13:24.611Z,42.30
2019-04-16T09:15:53.408Z,42.50
2019-04-16T09:18:32.939Z,43.20
2019-04-16T09:21:01.479Z,41.40
2019-04-16T09:23:29.887Z,41.00
2019-04-16T09:26:22.183Z,42.20
2019-04-16T09:28:55.807Z,44.20
2019-04-16T09:34:16.684Z,42.80
2019-04-16T09:40:31.025Z,40.00
2019-04-16T09:43:15.784Z,40.20
2019-04-16T09:45:33.857Z,40.70
2019-04-16T09:48:03.911Z,39.90
2019-04-16T09:50:47.716Z,38.60
2019-04-16T09:53:14.900Z,38.30
2019-04-16T09:55:43.700Z,38.10
2019-04-16T09:58:16.724Z,38.80
2019-04-16T10:00:47.156Z,39.60
2019-04-16T10:03:23.788Z,38.80
2019-04-16T10:05:52.279Z,38.20
2019-04-16T10:08:21.250Z,38.70
2019-04-16T10:10:50.417Z,39.30
2019-04-16T10:13:30.057Z,38.00
2019-04-16T10:15:49.108Z,39.00
2019-04-16T10:18:21.987Z,39.10
2019-04-16T10:20:50.392Z,35.50
2019-04-16T10:26:08.258Z,35.70
2019-04-16T10:28:40.997Z,34.10
2019-04-16T10:31:11.163Z,31.50
2019-04-16T10:33:39.996Z,32.10
2019-04-16T10:36:08.802Z,31.60
2019-04-16T10:38:39.560Z,33.00
2019-04-16T10:41:14.143Z,33.30
2019-04-16T10:43:45.199Z,33.20
2019-04-16T10:46:15.945Z,32.00
2019-04-16T10:48:52.296Z,31.30
2019-04-16T10:51:29.713Z,31.20
2019-04-16T10:53:59.831Z,30.70
2019-04-16T10:56:48.628Z,31.40
2019-04-16T10:59:35.343Z,32.30
2019-04-16T11:02:09.783Z,33.20
2019-04-16T11:04:43.012Z,32.80
2019-04-16T11:07:29.538Z,32.60
2019-04-16T11:10:17.684Z,32.60
2019-04-16T11:12:46.521Z,32.10
2019-04-16T11:15:16.800Z,32.70
2019-04-16T11:17:46.467Z,33.50
2019-04-16T11:20:15.396Z,33.70
2019-04-16T11:22:44.027Z,34.90
2019-04-16T11:25:12.524Z,33.10
2019-04-16T11:27:41.329Z,32.70
2019-04-16T11:30:15.926Z,32.30
2019-04-16T11:32:44.537Z,34.10
2019-04-16T11:35:16.729Z,34.90
2019-04-16T11:37:44.497Z,34.10
2019-04-16T11:40:13.620Z,33.90
2019-04-16T11:42:42.399Z,33.50
2019-04-16T11:45:12.391Z,32.60
2019-04-16T11:47:41.398Z,33.30
2019-04-16T11:50:09.949Z,33.10
2019-04-16T11:52:40.053Z,33.10
2019-04-16T11:55:08.755Z,31.90
2019-04-16T11:57:37.291Z,34.10
2019-04-16T12:00:12.770Z,33.90
2019-04-16T12:02:42.849Z,33.60
2019-04-16T12:05:25.332Z,33.00
2019-04-16T12:07:55.774Z,32.50
2019-04-16T12:10:38.105Z,32.70
2019-04-16T12:13:20.277Z,33.00
2019-04-16T12:16:02.543Z,32.30
2019-04-16T12:18:38.398Z,32.20
2019-04-16T12:21:31.171Z,32.40
2019-04-16T12:24:18.680Z,30.80
2019-04-16T12:26:54.882Z,29.80
2019-04-16T12:29:30.493Z,31.60
2019-04-16T12:32:06.651Z,30.00
2019-04-16T12:34:45.846Z,29.50
2019-04-16T12:37:21.938Z,29.40
2019-04-16T12:42:42.764Z,30.00
2019-04-16T12:45:28.569Z,29.70
2019-04-16T12:47:59.098Z,29.50
2019-04-16T12:50:45.680Z,30.10
2019-04-16T12:53:36.111Z,30.50
2019-04-16T12:56:11.682Z,30.20
2019-04-16T12:58:50.652Z,30.50
2019-04-16T13:01:29.140Z,29.80
2019-04-16T13:04:11.110Z,29.80
2019-04-16T13:06:41.274Z,29.70
2019-04-16T13:09:32.428Z,28.80
2019-04-16T13:12:09.454Z,28.00
2019-04-16T13:15:01.308Z,28.90
2019-04-16T13:17:47.922Z,28.30
2019-04-16T13:20:19.307Z,28.60
2019-04-16T13:22:55.772Z,28.80
2019-04-16T13:25:29.204Z,28.20
2019-04-16T13:27:57.947Z,27.20
2019-04-16T13:30:26.441Z,26.30
2019-04-16T13:32:55.316Z,26.60
2019-04-16T13:35:24.132Z,26.30
2019-04-16T13:37:52.579Z,26.30
2019-04-16T13:40:25.917Z,26.70
2019-04-16T13:42:54.684Z,25.90
2019-04-16T13:45:34.328Z,25.70
2019-04-16T13:48:16.033Z,25.80
2019-04-16T13:50:55.074Z,25.90
2019-04-16T13:53:29.694Z,26.80
2019-04-16T13:56:18.472Z,27.40
2019-04-16T13:58:51.491Z,27.10
2019-04-16T14:01:21.580Z,27.70
2019-04-16T14:03:50.316Z,28.60
2019-04-16T14:06:19.100Z,27.50
2019-04-16T14:08:47.535Z,26.40
2019-04-16T14:11:16.537Z,26.20
2019-04-16T14:13:49.989Z,25.70
2019-04-16T14:16:16.619Z,26.00
2019-04-16T14:18:45.063Z,27.20
2019-04-16T14:21:13.499Z,27.50
2019-04-16T14:23:42.290Z,27.20
2019-04-16T14:26:10.777Z,26.70
2019-04-16T14:28:51.290Z,26.00
2019-04-16T14:31:09.414Z,25.10
2019-04-16T14:33:45.746Z,25.80
2019-04-16T14:36:14.363Z,24.90
2019-04-16T14:38:47.639Z,25.60
2019-04-16T14:41:17.019Z,25.60
2019-04-16T14:43:47.099Z,25.10
2019-04-16T14:46:18.824Z,25.80
2019-04-16T14:48:47.267Z,25.70
2019-04-16T14:51:15.992Z,25.90
2019-04-16T14:53:51.235Z,26.40
2019-04-16T14:56:23.519Z,26.60
2019-04-16T15:01:41.052Z,26.90
2019-04-16T15:04:11.168Z,27.00
2019-04-16T15:06:57.355Z,26.80
2019-04-16T15:09:42.761Z,27.80
2019-04-16T15:12:29.271Z,27.70
2019-04-16T15:15:05.331Z,29.00
2019-04-16T15:17:47.507Z,28.70
2019-04-16T15:20:20.316Z,29.30
2019-04-16T15:22:53.656Z,28.40
2019-04-16T15:28:22.558Z,28.30
2019-04-16T15:30:52.643Z,27.70
2019-04-16T15:33:35.803Z,28.40
2019-04-16T15:38:47.696Z,29.00
2019-04-16T15:41:22.007Z,28.30
2019-04-16T15:44:10.580Z,28.40
2019-04-16T15:46:52.440Z,28.50
2019-04-16T15:49:23.127Z,28.50
2019-04-16T15:51:54.652Z,28.80
2019-04-16T15:54:36.686Z,29.40
2019-04-16T15:57:32.143Z,30.30
2019-04-16T16:00:03.136Z,32.30
2019-04-16T16:02:48.872Z,32.90
2019-04-16T16:05:19.296Z,32.30
2019-04-16T16:07:49.728Z,32.50
2019-04-16T16:10:20.159Z,32.00
2019-04-16T16:12:50.838Z,32.00
2019-04-16T16:15:18.825Z,32.20
2019-04-16T16:17:47.559Z,32.40
2019-04-16T16:20:17.273Z,32.60
2019-04-16T16:22:45.749Z,33.50
2019-04-16T16:25:14.225Z,34.10
2019-04-16T16:27:47.035Z,34.10
2019-04-16T16:30:15.034Z,34.30
2019-04-16T16:32:44.513Z,34.60
2019-04-16T16:35:16.988Z,34.60
2019-04-16T16:37:43.104Z,34.70
2019-04-16T16:40:15.191Z,34.60
2019-04-16T16:42:42.383Z,34.90
2019-04-16T16:45:11.928Z,34.80
2019-04-16T16:47:40.572Z,35.00
2019-04-16T16:50:12.181Z,35.40
2019-04-16T16:52:42.628Z,35.10
2019-04-16T16:55:16.256Z,34.80
2019-04-16T16:57:47.706Z,35.70
2019-04-16T17:00:23.902Z,35.60
2019-04-16T17:02:56.877Z,35.90
2019-04-16T17:05:30.023Z,36.00
2019-04-16T17:07:58.459Z,36.10
2019-04-16T17:10:28.887Z,36.50
2019-04-16T17:12:57.952Z,36.40
2019-04-16T17:15:27.394Z,36.70
2019-04-16T17:17:55.823Z,36.20
2019-04-16T17:20:26.217Z,36.40
2019-04-16T17:22:54.652Z,36.80
2019-04-16T17:25:35.485Z,36.80
2019-04-16T17:27:53.601Z,36.20
2019-04-16T17:30:22.051Z,36.60
2019-04-16T17:32:50.846Z,36.80
2019-04-16T17:35:31.617Z,36.80
2019-04-16T17:38:03.048Z,37.10
2019-04-16T17:40:32.756Z,37.10
2019-04-16T17:43:12.810Z,37.40
2019-04-16T17:45:37.864Z,37.40
2019-04-16T17:48:14.289Z,37.50
2019-04-16T17:50:44.362Z,36.90
2019-04-16T17:53:17.808Z,37.50
2019-04-16T17:56:04.407Z,37.60
2019-04-16T17:58:40.772Z,38.00
2019-04-16T18:01:14.461Z,38.40
2019-04-16T18:03:47.422Z,38.10
2019-04-16T18:06:36.863Z,38.30
2019-04-16T18:09:08.761Z,38.80
2019-04-16T18:11:50.863Z,38.60
2019-04-16T18:14:37.093Z,38.90
2019-04-16T18:17:07.554Z,39.00
2019-04-16T18:19:37.655Z,39.00
2019-04-16T18:22:07.727Z,39.30
2019-04-16T18:24:54.043Z,39.30
2019-04-16T18:27:29.143Z,39.80
2019-04-16T18:30:16.084Z,40.20
2019-04-16T18:33:14.592Z,40.30
2019-04-16T18:35:43.126Z,40.60
2019-04-16T18:38:22.075Z,40.60
2019-04-16T18:41:06.786Z,41.20
2019-04-16T18:43:36.853Z,41.40
2019-04-16T18:46:23.670Z,41.80
2019-04-16T18:49:09.234Z,42.00
2019-04-16T18:51:37.683Z,42.80
2019-04-16T18:54:06.703Z,42.70
2019-04-16T18:56:36.097Z,42.40
2019-04-16T18:59:25.689Z,42.50
2019-04-16T19:02:03.888Z,43.00
2019-04-16T19:04:32.637Z,43.30
2019-04-16T19:07:01.375Z,43.30
2019-04-16T19:09:30.315Z,43.60
2019-04-16T19:11:59.086Z,43.80
2019-04-16T19:14:27.860Z,43.90
2019-04-16T19:16:56.400Z,44.30
2019-04-16T19:19:25.914Z,44.30
2019-04-16T19:21:54.636Z,44.30
2019-04-16T19:24:24.039Z,44.10
2019-04-16T19:26:52.676Z,44.20
2019-04-16T19:29:21.605Z,44.20
2019-04-16T19:31:54.883Z,44.40
2019-04-16T19:34:20.323Z,44.60
2019-04-16T19:36:51.723Z,44.90
2019-04-16T19:39:20.323Z,45.20
2019-04-16T19:41:48.764Z,45.30
2019-04-16T19:44:17.548Z,45.50
2019-04-16T19:46:52.423Z,45.60
2019-04-16T19:49:16.169Z,46.10
2019-04-16T19:51:44.684Z,47.00
2019-04-16T19:54:15.160Z,47.00
2019-04-16T19:56:43.587Z,47.30
2019-04-16T19:59:12.030Z,47.40
2019-04-16T20:01:40.480Z,47.70
2019-04-16T20:04:15.726Z,47.90
2019-04-16T20:06:44.499Z,48.00
2019-04-16T20:09:13.423Z,47.90
2019-04-16T20:11:47.981Z,48.30
2019-04-16T20:14:17.895Z,47.90
2019-04-16T20:16:46.596Z,48.10
2019-04-16T20:19:16.410Z,48.00
2019-04-16T20:21:45.199Z,48.00
2019-04-16T20:24:15.559Z,48.00
2019-04-16T20:26:44.061Z,48.20
2019-04-16T20:29:12.796Z,48.10
2019-04-16T20:31:42.215Z,48.40
2019-04-16T20:34:12.561Z,48.60
2019-04-16T20:36:41.784Z,48.50
2019-04-16T20:39:10.290Z,48.70
2019-04-16T20:41:38.724Z,49.00
2019-04-16T20:44:09.267Z,49.20
2019-04-16T20:46:37.620Z,49.30
2019-04-16T20:49:09.921Z,49.40
2019-04-16T20:51:36.317Z,50.00
2019-04-16T20:54:05.151Z,49.90
2019-04-16T20:56:33.638Z,50.30
2019-04-16T20:59:04.063Z,50.30
2019-04-16T21:01:37.398Z,50.50
2019-04-16T21:04:05.665Z,50.60
2019-04-16T21:06:32.931Z,50.50
2019-04-16T21:09:01.768Z,50.70
2019-04-16T21:11:30.197Z,51.10
2019-04-16T21:14:00.681Z,51.50
2019-04-16T21:16:33.570Z,51.50
2019-04-16T21:18:59.438Z,51.60
2019-04-16T21:21:28.006Z,51.70
2019-04-16T21:23:56.905Z,51.90
2019-04-16T21:26:26.330Z,52.00
2019-04-16T21:29:05.517Z,52.10
2019-04-16T21:31:37.528Z,52.00
2019-04-16T21:37:21.620Z,52.00
2019-04-16T21:39:57.884Z,52.40
2019-04-16T21:42:26.599Z,53.10
2019-04-16T21:44:56.385Z,52.40
2019-04-16T21:47:25.284Z,52.60
2019-04-16T21:49:54.326Z,53.30
2019-04-16T21:52:23.947Z,52.70
2019-04-16T21:54:52.613Z,52.80
2019-04-16T21:57:21.055Z,52.90
2019-04-16T21:59:56.669Z,53.20
2019-04-16T22:02:24.641Z,53.00
2019-04-16T22:04:53.379Z,53.50
2019-04-16T22:07:24.803Z,53.40
2019-04-16T22:09:52.557Z,53.50
2019-04-16T22:12:21.385Z,53.50
2019-04-16T22:14:50.999Z,53.90
2019-04-16T22:17:21.074Z,53.90
2019-04-16T22:19:54.482Z,54.00
2019-04-16T22:22:19.949Z,54.00
2019-04-16T22:24:51.891Z,54.00
2019-04-16T22:27:20.699Z,54.20
2019-04-16T22:29:49.396Z,54.10
2019-04-16T22:32:18.183Z,54.20
2019-04-16T22:34:46.871Z,54.20
2019-04-16T22:37:15.579Z,54.60
2019-04-16T22:39:50.803Z,54.40
2019-04-16T22:42:18.404Z,54.30
2019-04-16T22:44:48.475Z,54.40
2019-04-16T22:47:19.488Z,54.20
2019-04-16T22:49:47.915Z,54.80
2019-04-16T22:52:17.267Z,54.80
2019-04-16T22:54:45.696Z,54.90
2019-04-16T22:57:15.210Z,54.80
2019-04-16T22:59:45.583Z,55.00
2019-04-16T23:02:18.640Z,55.00
2019-04-16T23:04:47.427Z,54.90
2019-04-16T23:07:16.219Z,54.80
2019-04-16T23:09:45.759Z,55.00
2019-04-16T23:12:15.502Z,54.80
2019-04-16T23:14:44.432Z,54.80
2019-04-16T23:17:14.320Z,54.70
2019-04-16T23:19:42.868Z,54.80
2019-04-16T23:22:14.579Z,54.70
2019-04-16T23:24:41.789Z,55.10
2019-04-16T23:27:30.078Z,55.00
2019-04-16T23:29:58.872Z,55.10
2019-04-16T23:32:28.668Z,55.30
2019-04-16T23:34:57.426Z,56.20
2019-04-16T23:37:25.842Z,55.60
2019-04-16T23:39:54.572Z,55.70
2019-04-16T23:42:23.277Z,55.80
2019-04-16T23:45:09.747Z,55.80
2019-04-16T23:47:42.913Z,55.60
2019-04-16T23:50:18.395Z,55.90
2019-04-16T23:52:54.647Z,56.60
2019-04-16T23:55:27.695Z,56.00
2019-04-16T23:57:57.775Z,56.20
